Time;durP1;ratioP1;P1;durP2;ratioP2;P2;SDS_P1;SDS_P2;PMS_P1;PMS_P2;Temp;Humidity;BMP_temperature;BMP_pressure;BME280_temperature;BME280_humidity;BME280_pressure;Samples;Min_cycle;Max_cycle;Signal;HPM_P1;HPM_P2
2022/12/10 00:01:05;;;;;;;1999.90;999.90;;;2.60;99.90;;;;;;5031444;28;20499;-67
2022/12/10 00:03:32;;;;;;;1999.90;999.90;;;2.60;99.90;;;;;;5031752;28;20441;-68
2022/12/10 00:06:01;;;;;;;1999.90;999.90;;;2.50;99.90;;;;;;5045466;28;20474;-68
2022/12/10 00:08:29;;;;;;;1999.90;999.90;;;2.50;99.90;;;;;;5050969;28;20835;-68
2022/12/10 00:10:56;;;;;;;1999.90;999.90;;;2.50;99.90;;;;;;5031793;28;20556;-67
2022/12/10 00:13:23;;;;;;;1999.90;999.90;;;2.50;99.90;;;;;;5037109;28;20447;-68
2022/12/10 00:15:50;;;;;;;1999.90;999.90;;;2.40;99.90;;;;;;5050417;28;20450;-68
2022/12/10 00:18:17;;;;;;;1999.90;999.90;;;2.30;99.90;;;;;;5045884;28;20477;-68
2022/12/10 00:20:44;;;;;;;1999.90;999.90;;;2.30;99.90;;;;;;5031417;28;20486;-69
2022/12/10 00:23:11;;;;;;;1999.90;999.90;;;2.30;99.90;;;;;;5030753;28;20460;-68
2022/12/10 00:25:39;;;;;;;1999.90;999.90;;;2.30;99.90;;;;;;5031236;28;20456;-68
2022/12/10 00:28:06;;;;;;;1999.90;999.90;;;2.30;99.90;;;;;;5030914;28;20443;-69
2022/12/10 00:30:34;;;;;;;1999.90;999.90;;;2.30;99.90;;;;;;5031106;28;20448;-68
2022/12/10 00:33:00;;;;;;;1999.90;999.90;;;2.50;99.90;;;;;;5030534;28;20465;-68
2022/12/10 00:35:27;;;;;;;1999.90;999.90;;;2.40;99.90;;;;;;5030823;28;20846;-69
2022/12/10 00:37:54;;;;;;;1999.90;999.90;;;2.50;99.90;;;;;;5030947;28;20488;-68
2022/12/10 00:40:21;;;;;;;1999.90;999.90;;;2.50;99.90;;;;;;5030320;28;20531;-68
2022/12/10 00:42:49;;;;;;;1999.90;999.90;;;2.50;99.90;;;;;;5033182;28;20465;-68
2022/12/10 00:45:16;;;;;;;1999.90;999.90;;;2.40;99.90;;;;;;5050183;28;20448;-68
2022/12/10 00:47:43;;;;;;;1999.90;999.90;;;2.40;99.90;;;;;;5050385;28;20450;-68
2022/12/10 00:50:10;;;;;;;1999.90;999.90;;;2.40;99.90;;;;;;5049812;28;20458;-68
2022/12/10 00:52:37;;;;;;;1999.90;999.90;;;2.30;99.90;;;;;;5049331;28;20978;-68
2022/12/10 00:55:04;;;;;;;1999.90;999.90;;;2.40;99.90;;;;;;5049645;28;20940;-68
2022/12/10 00:57:31;;;;;;;1999.90;999.90;;;2.40;99.90;;;;;;5050549;28;20853;-69
2022/12/10 00:59:59;;;;;;;1999.90;999.90;;;2.40;99.90;;;;;;5049748;28;20444;-68
2022/12/10 01:02:26;;;;;;;1999.90;999.90;;;2.40;99.90;;;;;;5050101;28;20468;-69
2022/12/10 01:04:53;;;;;;;1999.90;999.90;;;2.50;99.90;;;;;;5050488;28;20451;-69
2022/12/10 01:07:20;;;;;;;1999.90;999.90;;;2.50;99.90;;;;;;5049897;28;20443;-69
2022/12/10 01:09:47;;;;;;;1999.90;999.90;;;2.50;99.90;;;;;;5050031;28;20448;-69
2022/12/10 01:12:14;;;;;;;1999.90;999.90;;;2.60;99.90;;;;;;5049737;28;21070;-68
2022/12/10 01:14:41;;;;;;;1999.90;999.90;;;2.50;99.90;;;;;;5050063;28;20456;-68
2022/12/10 01:17:09;;;;;;;1999.90;999.90;;;2.50;99.90;;;;;;5029514;28;20484;-69
2022/12/10 01:19:36;;;;;;;1999.90;999.90;;;2.40;99.90;;;;;;5029484;28;20457;-67
2022/12/10 01:22:03;;;;;;;1999.90;999.90;;;2.40;99.90;;;;;;5029694;28;21005;-69
2022/12/10 01:24:30;;;;;;;1999.90;999.90;;;2.40;99.90;;;;;;5029856;28;20452;-68
2022/12/10 01:26:57;;;;;;;1999.90;999.90;;;2.40;99.90;;;;;;5029790;28;20812;-68
2022/12/10 01:29:24;;;;;;;1999.90;999.90;;;2.30;99.90;;;;;;5037991;28;20864;-69
2022/12/10 01:31:52;;;;;;;1999.90;999.90;;;2.20;99.90;;;;;;5049620;28;20460;-68
2022/12/10 01:34:21;;;;;;;1999.90;999.90;;;2.20;99.90;;;;;;5048746;28;20448;-69
2022/12/10 01:36:52;;;;;;;1999.90;999.90;;;2.20;99.90;;;;;;5049798;28;20591;-69
2022/12/10 01:39:21;;;;;;;1999.90;999.90;;;2.30;99.90;;;;;;5049039;28;20832;-68
2022/12/10 01:41:50;;;;;;;1999.90;999.90;;;2.40;99.90;;;;;;5049545;28;20479;-69
2022/12/10 01:44:58;;;;;;;1999.90;999.90;;;2.50;99.90;;;;;;5048834;28;20957;-69
2022/12/10 01:47:25;;;;;;;1999.90;999.90;;;2.60;99.90;;;;;;5029489;28;20433;-69
2022/12/10 01:49:53;;;;;;;1999.90;999.90;;;2.60;99.90;;;;;;5029575;28;20448;-68
2022/12/10 01:52:20;;;;;;;1999.90;999.90;;;2.60;99.90;;;;;;5029379;28;20461;-69
2022/12/10 01:54:48;;;;;;;1999.90;999.90;;;2.60;99.90;;;;;;5029390;28;20507;-68
2022/12/10 01:57:17;;;;;;;1999.90;999.90;;;2.60;99.90;;;;;;5028871;28;20575;-69
2022/12/10 01:59:47;;;;;;;1999.90;999.90;;;2.60;99.90;;;;;;5028953;28;20448;-69
2022/12/10 02:02:24;;;;;;;1999.90;999.90;;;2.50;99.90;;;;;;5028956;28;20469;-68
2022/12/10 02:05:05;;;;;;;1999.90;999.90;;;2.40;99.90;;;;;;5028868;28;20455;-68
2022/12/10 02:07:46;;;;;;;1999.90;999.90;;;2.50;99.90;;;;;;5029182;28;20865;-68
2022/12/10 02:10:24;;;;;;;1999.90;999.90;;;2.40;99.90;;;;;;5028409;28;20453;-68
2022/12/10 02:12:58;;;;;;;1999.90;999.90;;;2.40;99.90;;;;;;5040661;28;20487;-68
2022/12/10 02:15:28;;;;;;;1999.90;999.90;;;2.40;99.90;;;;;;5048990;28;20831;-69
2022/12/10 02:17:58;;;;;;;1999.90;999.90;;;2.30;99.90;;;;;;5030456;28;20905;-68
2022/12/10 02:20:31;;;;;;;1999.90;999.90;;;2.30;99.90;;;;;;5028679;28;20449;-68
2022/12/10 02:23:02;;;;;;;1999.90;999.90;;;2.20;99.90;;;;;;5028737;28;20468;-68
2022/12/10 02:25:35;;;;;;;1999.90;999.90;;;2.20;99.90;;;;;;5029380;28;20441;-68
2022/12/10 02:28:07;;;;;;;1999.90;999.90;;;2.20;99.90;;;;;;5028406;28;20445;-68
2022/12/10 02:30:36;;;;;;;1999.90;999.90;;;2.20;99.90;;;;;;5032261;28;20452;-69
2022/12/10 02:33:06;;;;;;;1999.90;999.90;;;2.30;99.90;;;;;;5048286;28;20474;-68
2022/12/10 02:35:38;;;;;;;1999.90;999.90;;;2.20;99.90;;;;;;5048817;28;20456;-68
2022/12/10 02:38:10;;;;;;;1999.90;999.90;;;2.10;99.90;;;;;;5048177;28;21013;-68
2022/12/10 02:40:39;;;;;;;1999.90;999.90;;;2.20;99.90;;;;;;5048765;28;20444;-69
2022/12/10 02:43:08;;;;;;;1999.90;999.90;;;2.20;99.90;;;;;;5048290;28;20486;-68
2022/12/10 02:45:37;;;;;;;1999.90;999.90;;;2.30;99.90;;;;;;5048651;28;20444;-68
2022/12/10 02:48:05;;;;;;;1999.90;999.90;;;2.40;99.90;;;;;;5048544;28;20439;-68
2022/12/10 02:50:33;;;;;;;1999.90;999.90;;;2.30;99.90;;;;;;5048539;28;21009;-68
2022/12/10 02:52:59;;;;;;;1999.90;999.90;;;2.20;99.90;;;;;;5048407;28;20464;-68
2022/12/10 02:55:26;;;;;;;1999.90;999.90;;;2.10;99.90;;;;;;5050466;28;20523;-68
2022/12/10 02:58:07;;;;;;;1999.90;999.90;;;2.10;99.90;;;;;;5049296;28;20480;-68
2022/12/10 03:00:42;;;;;;;1999.90;999.90;;;2.00;99.90;;;;;;5048570;28;20444;-69
2022/12/10 03:03:23;;;;;;;1999.90;999.90;;;2.10;99.90;;;;;;5047796;28;21023;-69
2022/12/10 03:05:56;;;;;;;1999.90;999.90;;;2.00;99.90;;;;;;5048255;28;20447;-69
2022/12/10 03:08:29;;;;;;;1999.90;999.90;;;2.00;99.90;;;;;;5048163;28;20440;-68
2022/12/10 03:11:00;;;;;;;1999.90;999.90;;;1.90;99.90;;;;;;5048352;28;20446;-68
2022/12/10 03:13:33;;;;;;;1999.90;999.90;;;1.90;99.90;;;;;;5048222;28;20440;-69
2022/12/10 03:16:03;;;;;;;1999.90;999.90;;;1.80;99.90;;;;;;5046825;28;20432;-68
2022/12/10 03:18:32;;;;;;;1999.90;999.90;;;1.80;99.90;;;;;;5047259;28;20478;-68
2022/12/10 03:21:05;;;;;;;1999.90;999.90;;;1.80;99.90;;;;;;5047820;28;20446;-68
2022/12/10 03:23:34;;;;;;;1999.90;999.90;;;1.80;99.90;;;;;;5048191;28;20455;-68
2022/12/10 03:26:02;;;;;;;1999.90;999.90;;;1.80;99.90;;;;;;5047956;28;20440;-69
2022/12/10 03:28:35;;;;;;;1999.90;999.90;;;1.90;99.90;;;;;;5047628;28;20436;-68
2022/12/10 03:31:04;;;;;;;1999.90;999.90;;;1.90;99.90;;;;;;5047487;28;20432;-69
2022/12/10 03:33:31;;;;;;;1999.90;999.90;;;1.90;99.90;;;;;;5048017;28;20443;-69
2022/12/10 03:35:58;;;;;;;1999.90;999.90;;;1.80;99.90;;;;;;5047484;28;20447;-69
2022/12/10 03:38:25;;;;;;;1999.90;999.90;;;1.80;99.90;;;;;;5047751;28;20478;-68
2022/12/10 03:40:52;;;;;;;1999.90;999.90;;;1.80;99.90;;;;;;5047736;28;20436;-68
2022/12/10 03:43:19;;;;;;;1999.90;999.90;;;1.80;99.90;;;;;;5047377;28;20791;-68
2022/12/10 03:45:45;;;;;;;1999.90;999.90;;;1.80;99.90;;;;;;5047892;28;20491;-69
2022/12/10 03:48:14;;;;;;;1999.90;999.90;;;1.80;99.90;;;;;;5047376;28;20462;-69
2022/12/10 03:50:40;;;;;;;1999.90;999.90;;;1.70;99.90;;;;;;5047873;28;20444;-68
2022/12/10 03:53:07;;;;;;;1999.90;999.90;;;1.70;99.90;;;;;;5047262;28;20460;-68
2022/12/10 03:55:34;;;;;;;1999.90;999.90;;;1.70;99.90;;;;;;5047930;28;20444;-69
2022/12/10 03:58:01;;;;;;;1999.90;999.90;;;1.60;99.90;;;;;;5047077;28;20844;-68
2022/12/10 04:00:27;;;;;;;1999.90;999.90;;;1.60;99.90;;;;;;5047674;28;20443;-68
2022/12/10 04:02:54;;;;;;;1999.90;999.90;;;1.70;99.90;;;;;;5047694;28;20492;-69
2022/12/10 04:05:22;;;;;;;1999.90;999.90;;;1.80;99.90;;;;;;5047737;28;20506;-68
2022/12/10 04:07:49;;;;;;;1999.90;999.90;;;1.70;99.90;;;;;;5047754;28;20448;-69
2022/12/10 04:10:16;;;;;;;1999.90;999.90;;;1.70;99.90;;;;;;5046825;28;20451;-69
2022/12/10 04:16:26;;;;;;;1999.90;999.90;;;1.80;99.90;;;;;;5047411;28;20467;-68
2022/12/10 04:18:14;;;;;;;1999.90;999.90;;;1.80;99.90;;;;;;5046997;28;20479;-68
2022/12/10 04:28:54;;;;;;;1999.90;999.90;;;2.10;99.90;;;;;;5050302;28;20530;-69
2022/12/10 04:31:21;;;;;;;1999.90;999.90;;;2.20;99.90;;;;;;5050526;28;20472;-69
2022/12/10 04:33:48;;;;;;;1999.90;999.90;;;2.10;99.90;;;;;;5051320;28;20436;-69
2022/12/10 04:36:16;;;;;;;1999.90;999.90;;;2.00;99.90;;;;;;5050341;28;20551;-68
2022/12/10 04:38:43;;;;;;;1999.90;999.90;;;2.00;99.90;;;;;;5050599;28;20476;-69
2022/12/10 04:41:15;;;;;;;1999.90;999.90;;;2.00;99.90;;;;;;5050191;28;20448;-69
2022/12/10 04:43:42;;;;;;;1999.90;999.90;;;1.90;99.90;;;;;;5050906;28;20437;-69
2022/12/10 04:46:10;;;;;;;1999.90;999.90;;;1.80;99.90;;;;;;5050499;28;20451;-69
2022/12/10 04:48:36;;;;;;;1999.90;999.90;;;2.00;99.90;;;;;;5050319;28;20440;-68
2022/12/10 04:51:03;;;;;;;1999.90;999.90;;;2.10;99.90;;;;;;5050665;28;20446;-69
2022/12/10 04:53:32;;;;;;;1999.90;999.90;;;2.10;99.90;;;;;;5050378;28;20436;-69
2022/12/10 04:55:59;;;;;;;1999.90;999.90;;;2.20;99.90;;;;;;5050420;28;20440;-68
2022/12/10 04:58:30;;;;;;;1999.90;999.90;;;2.00;99.90;;;;;;5049902;28;20478;-68
2022/12/10 05:01:02;;;;;;;1999.90;999.90;;;2.00;99.90;;;;;;5050131;28;20934;-68
2022/12/10 05:03:28;;;;;;;1999.90;999.90;;;2.00;99.90;;;;;;5050687;28;21101;-69
2022/12/10 05:05:55;;;;;;;1999.90;999.90;;;1.90;99.90;;;;;;5050558;28;20462;-69
2022/12/10 05:08:22;;;;;;;1999.90;999.90;;;1.90;99.90;;;;;;5049976;28;20918;-69
2022/12/10 05:10:50;;;;;;;1999.90;999.90;;;1.80;99.90;;;;;;5050353;28;20440;-69
2022/12/10 05:13:17;;;;;;;1999.90;999.90;;;1.80;99.90;;;;;;5049975;28;20502;-69
2022/12/10 05:15:44;;;;;;;1999.90;999.90;;;1.80;99.90;;;;;;5050312;28;20440;-69
2022/12/10 05:18:10;;;;;;;1999.90;999.90;;;1.80;99.90;;;;;;5050282;28;20472;-68
2022/12/10 05:20:37;;;;;;;1999.90;999.90;;;1.80;99.90;;;;;;5051002;28;20832;-69
2022/12/10 05:25:53;;;;;;;1999.90;999.90;;;1.90;99.90;;;;;;5050960;28;20574;-69
2022/12/10 05:28:20;;;;;;;1999.90;999.90;;;1.90;99.90;;;;;;5051359;28;20428;-68
2022/12/10 05:30:47;;;;;;;1999.90;999.90;;;1.80;99.90;;;;;;5051695;28;20444;-69
2022/12/10 05:33:14;;;;;;;1999.90;999.90;;;1.80;99.90;;;;;;5051774;28;20466;-68
2022/12/10 05:35:41;;;;;;;1999.90;999.90;;;1.70;99.90;;;;;;5051412;28;20451;-68
2022/12/10 05:38:08;;;;;;;1999.90;999.90;;;1.80;99.90;;;;;;5051703;28;20859;-69
2022/12/10 05:40:35;;;;;;;1999.90;999.90;;;1.70;99.90;;;;;;5050776;28;20444;-69
2022/12/10 05:43:03;;;;;;;1999.90;999.90;;;1.70;99.90;;;;;;5051192;28;21256;-69
2022/12/10 05:45:32;;;;;;;1999.90;999.90;;;1.80;99.90;;;;;;5051402;28;20444;-69
2022/12/10 05:48:00;;;;;;;1999.90;999.90;;;1.80;99.90;;;;;;5050982;28;20463;-69
2022/12/10 05:50:27;;;;;;;1999.90;999.90;;;1.80;99.90;;;;;;5050823;28;20444;-69
2022/12/10 05:52:54;;;;;;;1999.90;999.90;;;1.90;99.90;;;;;;5050807;28;20468;-69
2022/12/10 05:55:21;;;;;;;1999.90;999.90;;;1.80;99.90;;;;;;5051211;28;20471;-69
2022/12/10 05:57:47;;;;;;;1999.90;999.90;;;1.80;99.90;;;;;;5050791;28;20438;-68
2022/12/10 06:00:16;;;;;;;1999.90;999.90;;;1.70;99.90;;;;;;5050712;28;20455;-69
2022/12/10 06:02:43;;;;;;;1999.90;999.90;;;1.70;99.90;;;;;;5050671;28;20462;-68
2022/12/10 06:05:10;;;;;;;1999.90;999.90;;;1.80;99.90;;;;;;5050631;28;20960;-69
2022/12/10 06:07:37;;;;;;;1999.90;999.90;;;1.70;99.90;;;;;;5050925;28;20866;-69
2022/12/10 06:10:04;;;;;;;1999.90;999.90;;;1.70;99.90;;;;;;5050509;28;21096;-68
2022/12/10 06:12:31;;;;;;;1999.90;999.90;;;1.70;99.90;;;;;;5050731;28;20464;-68
2022/12/10 06:14:58;;;;;;;1999.90;999.90;;;1.60;99.90;;;;;;5050410;28;20444;-67
2022/12/10 06:17:26;;;;;;;1999.90;999.90;;;1.60;99.90;;;;;;5050480;28;20463;-68
2022/12/10 06:19:53;;;;;;;1999.90;999.90;;;1.50;99.90;;;;;;5049760;28;20480;-68
2022/12/10 06:22:19;;;;;;;1999.90;999.90;;;1.50;99.90;;;;;;5050645;28;20475;-68
2022/12/10 06:24:46;;;;;;;1999.90;999.90;;;1.60;99.90;;;;;;5050366;28;20445;-68
2022/12/10 06:27:13;;;;;;;1999.90;999.90;;;1.60;99.90;;;;;;5050471;28;20812;-68
2022/12/10 06:29:40;;;;;;;1999.90;999.90;;;1.60;99.90;;;;;;5049892;28;20471;-68
2022/12/10 06:32:07;;;;;;;1999.90;999.90;;;1.60;99.90;;;;;;5050195;28;20464;-67
2022/12/10 06:34:35;;;;;;;1999.90;999.90;;;1.80;99.90;;;;;;5050194;28;20451;-68
2022/12/10 06:37:01;;;;;;;1999.90;999.90;;;1.80;99.90;;;;;;5049966;28;20471;-67
2022/12/10 06:39:28;;;;;;;1999.90;999.90;;;1.80;99.90;;;;;;5049846;28;20498;-68
2022/12/10 06:41:55;;;;;;;1999.90;999.90;;;1.80;99.90;;;;;;5049986;28;20483;-70
2022/12/10 06:44:22;;;;;;;1999.90;999.90;;;1.70;99.90;;;;;;5050088;28;20519;-68
2022/12/10 06:46:48;;;;;;;1999.90;999.90;;;1.80;99.90;;;;;;5049717;28;20447;-68
2022/12/10 06:49:15;;;;;;;1999.90;999.90;;;1.70;99.90;;;;;;5049972;28;20432;-68
2022/12/10 06:51:43;;;;;;;1999.90;999.90;;;1.70;99.90;;;;;;5049794;28;20471;-67
2022/12/10 06:54:10;;;;;;;1999.90;999.90;;;1.80;99.90;;;;;;5050069;28;20440;-68
2022/12/10 06:56:37;;;;;;;1999.90;999.90;;;1.80;99.90;;;;;;5049771;28;20447;-68
2022/12/10 06:59:06;;;;;;;1999.90;999.90;;;1.80;99.90;;;;;;5049447;28;20482;-67
2022/12/10 07:01:33;;;;;;;1999.90;999.90;;;1.80;99.90;;;;;;5049590;28;20563;-68
2022/12/10 07:04:00;;;;;;;1999.90;999.90;;;1.90;99.90;;;;;;5049560;28;20933;-68
2022/12/10 07:06:28;;;;;;;1999.90;999.90;;;1.80;99.90;;;;;;5049791;28;20964;-69
2022/12/10 07:08:56;;;;;;;1999.90;999.90;;;1.80;99.90;;;;;;5049274;28;20436;-68
2022/12/10 07:11:24;;;;;;;1999.90;999.90;;;1.80;99.90;;;;;;5049498;28;20554;-68
2022/12/10 07:13:51;;;;;;;1999.90;999.90;;;1.80;99.90;;;;;;5049271;28;20977;-68
2022/12/10 07:16:20;;;;;;;1999.90;999.90;;;1.80;99.90;;;;;;5049714;28;20444;-69
2022/12/10 07:18:48;;;;;;;1999.90;999.90;;;1.80;99.90;;;;;;5049120;28;20480;-69
2022/12/10 07:21:16;;;;;;;1999.90;999.90;;;1.80;99.90;;;;;;5049471;28;20467;-69
2022/12/10 07:23:43;;;;;;;1999.90;999.90;;;1.90;99.90;;;;;;5049274;28;20454;-69
2022/12/10 07:26:11;;;;;;;1999.90;999.90;;;1.90;99.90;;;;;;5049644;28;20447;-69
2022/12/10 07:28:38;;;;;;;1999.90;999.90;;;2.00;99.90;;;;;;5049298;28;21129;-69
2022/12/10 07:31:06;;;;;;;1999.90;999.90;;;2.00;99.90;;;;;;5049278;28;20853;-68
2022/12/10 07:33:34;;;;;;;1999.90;999.90;;;1.90;99.90;;;;;;5049633;28;20454;-68
2022/12/10 07:36:03;;;;;;;1999.90;999.90;;;2.00;99.90;;;;;;5049103;28;20456;-68
2022/12/10 07:38:30;;;;;;;1999.90;999.90;;;1.90;99.90;;;;;;5049100;28;20451;-68
2022/12/10 07:40:57;;;;;;;1999.90;999.90;;;1.90;99.90;;;;;;5048988;28;20444;-68
2022/12/10 07:43:25;;;;;;;1999.90;999.90;;;2.00;99.90;;;;;;5049465;28;20455;-68
2022/12/10 07:45:52;;;;;;;1999.90;999.90;;;2.00;99.90;;;;;;5050091;28;20472;-68
2022/12/10 07:48:19;;;;;;;1999.90;999.90;;;2.20;99.90;;;;;;5050622;28;20456;-68
2022/12/10 07:50:45;;;;;;;1999.90;999.90;;;2.30;99.90;;;;;;5049627;28;20439;-68
2022/12/10 07:53:12;;;;;;;1999.90;999.90;;;2.30;99.90;;;;;;5049320;28;20471;-69
2022/12/10 07:55:39;;;;;;;1999.90;999.90;;;2.30;99.90;;;;;;5049527;28;20454;-68
2022/12/10 07:58:06;;;;;;;1999.90;999.90;;;2.40;99.90;;;;;;5049167;28;20451;-68
2022/12/10 08:00:34;;;;;;;1999.90;999.90;;;2.50;99.90;;;;;;5049346;28;20484;-68
2022/12/10 08:03:01;;;;;;;1999.90;999.90;;;2.50;99.90;;;;;;5049287;28;21284;-68
2022/12/10 08:05:27;;;;;;;1999.90;999.90;;;2.40;99.90;;;;;;5048450;28;20497;-67
2022/12/10 08:07:54;;;;;;;1999.90;999.90;;;2.40;99.90;;;;;;5052439;28;20451;-68
2022/12/10 08:10:21;;;;;;;1999.90;999.90;;;2.30;99.90;;;;;;5051131;28;20448;-67
2022/12/10 08:12:47;;;;;;;1999.90;999.90;;;2.30;99.90;;;;;;5053098;28;20463;-69
2022/12/10 08:15:14;;;;;;;1999.90;999.90;;;2.30;99.90;;;;;;5053064;28;20447;-68
2022/12/10 08:17:42;;;;;;;1999.90;999.90;;;2.40;99.90;;;;;;5048764;28;20452;-67
2022/12/10 08:20:10;;;;;;;1999.90;999.90;;;2.50;99.90;;;;;;5050303;28;20476;-69
2022/12/10 08:22:38;;;;;;;1999.90;999.90;;;2.50;99.90;;;;;;5053012;28;20468;-70
2022/12/10 08:25:05;;;;;;;1999.90;999.90;;;2.60;99.90;;;;;;5053166;28;20448;-68
2022/12/10 08:27:32;;;;;;;1999.90;999.90;;;2.60;99.90;;;;;;5052988;28;20448;-68
2022/12/10 08:29:58;;;;;;;1999.90;999.90;;;2.50;99.90;;;;;;5052070;28;20444;-69
2022/12/10 08:32:25;;;;;;;1999.90;999.90;;;2.50;99.90;;;;;;5052325;28;20464;-69
2022/12/10 08:34:53;;;;;;;1999.90;999.90;;;2.40;99.90;;;;;;5048175;28;20448;-67
2022/12/10 08:37:20;;;;;;;1999.90;999.90;;;2.40;99.90;;;;;;5046437;28;20558;-68
2022/12/10 08:39:47;;;;;;;1999.90;999.90;;;2.40;99.90;;;;;;5042521;28;20488;-67
2022/12/10 08:42:14;;;;;;;1999.90;999.90;;;2.30;99.90;;;;;;5033067;28;20472;-68
2022/12/10 08:44:40;;;;;;;1999.90;999.90;;;2.30;99.90;;;;;;5031688;28;21013;-67
2022/12/10 08:47:07;;;;;;;1999.90;999.90;;;2.30;99.90;;;;;;5031337;28;20967;-67
2022/12/10 08:49:34;;;;;;;1999.90;999.90;;;2.30;99.90;;;;;;5031058;28;20449;-67
2022/12/10 08:52:02;;;;;;;1999.90;999.90;;;2.30;99.90;;;;;;5031684;28;20857;-67
2022/12/10 08:54:29;;;;;;;1999.90;999.90;;;2.30;99.90;;;;;;5031774;28;20556;-69
2022/12/10 08:56:56;;;;;;;1999.90;999.90;;;2.30;99.90;;;;;;5031765;28;20451;-69
2022/12/10 08:59:23;;;;;;;1999.90;999.90;;;2.30;99.90;;;;;;5036930;28;20473;-68
2022/12/10 09:01:51;;;;;;;1999.90;999.90;;;2.30;99.90;;;;;;5042555;28;20468;-69
2022/12/10 09:04:18;;;;;;;1999.90;999.90;;;2.40;99.90;;;;;;5049869;28;20462;-69
2022/12/10 09:06:45;;;;;;;1999.90;999.90;;;2.40;99.90;;;;;;5048403;28;20448;-68
2022/12/10 09:09:13;;;;;;;1999.90;999.90;;;2.50;99.90;;;;;;5039848;28;20445;-68
2022/12/10 09:11:40;;;;;;;1999.90;999.90;;;2.50;99.90;;;;;;5032810;28;20467;-68
2022/12/10 09:14:07;;;;;;;1999.90;999.90;;;2.50;99.90;;;;;;5030988;28;20452;-69
2022/12/10 09:16:38;;;;;;;1999.90;999.90;;;2.50;99.90;;;;;;5032475;28;20463;-69
2022/12/10 09:19:06;;;;;;;1999.90;999.90;;;2.50;99.90;;;;;;5043548;28;20570;-69
2022/12/10 09:21:33;;;;;;;1999.90;999.90;;;2.50;99.90;;;;;;5051570;28;20464;-68
2022/12/10 09:24:00;;;;;;;1999.90;999.90;;;2.50;99.90;;;;;;5051719;28;20456;-69
2022/12/10 09:26:28;;;;;;;1999.90;999.90;;;2.60;99.90;;;;;;5050947;28;20448;-68
2022/12/10 09:28:57;;;;;;;1999.90;999.90;;;2.70;99.90;;;;;;5051105;28;20448;-68
2022/12/10 09:31:24;;;;;;;1999.90;999.90;;;2.80;99.90;;;;;;5051279;28;20871;-70
2022/12/10 09:33:53;;;;;;;1999.90;999.90;;;2.70;99.90;;;;;;5051415;28;20448;-69
2022/12/10 09:36:21;;;;;;;1999.90;999.90;;;2.80;99.90;;;;;;5051535;28;20464;-69
2022/12/10 09:38:49;;;;;;;1999.90;999.90;;;2.90;99.90;;;;;;5051973;28;20840;-69
2022/12/10 09:41:38;;;;;;;1999.90;999.90;;;3.10;99.90;;;;;;5050119;28;20470;-69
2022/12/10 09:44:11;;;;;;;1999.90;999.90;;;3.30;99.90;;;;;;5047925;28;20448;-69
2022/12/10 09:46:47;;;;;;;1999.90;999.90;;;3.20;99.90;;;;;;5044611;28;20437;-69
2022/12/10 09:49:24;;;;;;;1999.90;999.90;;;3.20;99.90;;;;;;5049156;28;20444;-68
2022/12/10 09:51:54;;;;;;;1999.90;999.90;;;3.10;99.90;;;;;;5045053;28;20472;-68
2022/12/10 09:54:26;;;;;;;1999.90;999.90;;;2.90;99.90;;;;;;5046834;28;20444;-68
2022/12/10 09:56:56;;;;;;;1999.90;999.90;;;2.90;99.90;;;;;;5046834;28;20445;-69
2022/12/10 09:59:28;;;;;;;1999.90;999.90;;;2.90;99.90;;;;;;5047938;28;20497;-70
2022/12/10 10:02:03;;;;;;;1999.90;999.90;;;2.90;99.90;;;;;;5028639;28;20464;-69
2022/12/10 10:04:30;;;;;;;1999.90;999.90;;;3.00;99.90;;;;;;5042245;28;21445;-69
2022/12/10 10:06:58;;;;;;;1999.90;999.90;;;3.20;99.90;;;;;;5048250;28;20943;-69
2022/12/10 10:09:25;;;;;;;1999.90;999.90;;;3.20;99.90;;;;;;5045519;28;20444;-69
2022/12/10 10:11:53;;;;;;;1999.90;999.90;;;3.20;99.90;;;;;;5041824;28;20551;-69
2022/12/10 10:14:26;;;;;;;1999.90;999.90;;;3.30;99.90;;;;;;5044342;28;20469;-69
2022/12/10 10:16:58;;;;;;;1999.90;999.90;;;3.20;99.90;;;;;;5044652;28;20444;-69
2022/12/10 10:19:29;;;;;;;1999.90;999.90;;;3.20;99.90;;;;;;5043187;28;21197;-67
2022/12/10 10:21:55;;;;;;;1999.90;999.90;;;3.20;99.90;;;;;;5039759;28;20472;-68
2022/12/10 10:24:25;;;;;;;1999.90;999.90;;;3.30;99.90;;;;;;5038082;28;20447;-68
2022/12/10 10:26:57;;;;;;;1999.90;999.90;;;3.40;99.90;;;;;;5037829;28;20440;-68
2022/12/10 10:29:26;;;;;;;1999.90;999.90;;;3.40;99.90;;;;;;5039827;28;20441;-68
2022/12/10 10:32:13;;;;;;;1999.90;999.90;;;3.40;99.90;;;;;;5039900;28;20524;-68
2022/12/10 10:34:41;;;;;;;1999.90;999.90;;;3.50;99.90;;;;;;5041379;28;20457;-70
2022/12/10 10:37:14;;;;;;;1999.90;999.90;;;3.60;99.90;;;;;;5041619;28;20447;-69
2022/12/10 10:39:48;;;;;;;1999.90;999.90;;;3.60;99.90;;;;;;5040777;28;20476;-68
2022/12/10 10:42:34;;;;;;;1999.90;999.90;;;3.50;99.90;;;;;;5039884;28;20461;-69
2022/12/10 10:45:03;;;;;;;1999.90;999.90;;;3.50;99.90;;;;;;5041460;28;20441;-68
2022/12/10 10:47:33;;;;;;;1999.90;999.90;;;3.40;99.90;;;;;;5037113;28;20448;-69
2022/12/10 10:50:00;;;;;;;1999.90;999.90;;;3.50;99.90;;;;;;5029736;28;20484;-68
2022/12/10 10:52:29;;;;;;;1999.90;999.90;;;3.50;99.90;;;;;;5038747;28;20464;-69
2022/12/10 10:54:56;;;;;;;1999.90;999.90;;;3.50;99.90;;;;;;5030828;28;20443;-69
2022/12/10 10:57:29;;;;;;;1999.90;999.90;;;3.50;99.90;;;;;;5030150;28;20942;-69
2022/12/10 11:00:01;;;;;;;1999.90;999.90;;;3.40;99.90;;;;;;5032623;28;20980;-69
2022/12/10 11:02:33;;;;;;;1999.90;999.90;;;3.40;99.90;;;;;;5041273;28;20460;-68
2022/12/10 11:05:07;;;;;;;1999.90;999.90;;;3.50;99.90;;;;;;5041151;28;20448;-70
2022/12/10 11:07:37;;;;;;;1999.90;999.90;;;3.60;99.90;;;;;;5036892;28;20441;-68
2022/12/10 11:10:16;;;;;;;1999.90;999.90;;;3.80;99.90;;;;;;5039634;28;20437;-67
2022/12/10 11:12:53;;;;;;;1999.90;999.90;;;4.00;99.90;;;;;;5037886;28;20499;-66
2022/12/10 11:15:39;;;;;;;1999.90;999.90;;;4.30;99.90;;;;;;5035858;28;20455;-68
2022/12/10 11:18:25;;;;;;;1999.90;999.90;;;4.40;99.90;;;;;;5041828;28;20446;-68
2022/12/10 11:21:00;;;;;;;1999.90;999.90;;;4.30;99.90;;;;;;5046610;28;20476;-68
2022/12/10 11:23:32;;;;;;;1999.90;999.90;;;4.20;99.90;;;;;;5041086;28;20444;-69
2022/12/10 11:26:10;;;;;;;1999.90;999.90;;;4.30;99.90;;;;;;5049346;28;20470;-69
2022/12/10 11:28:50;;;;;;;1999.90;999.90;;;4.00;99.90;;;;;;5049952;28;20952;-69
2022/12/10 11:31:33;;;;;;;1999.90;999.90;;;3.80;99.90;;;;;;5043152;28;20467;-69
2022/12/10 11:34:09;;;;;;;1999.90;999.90;;;3.80;99.90;;;;;;5049585;28;20448;-69
2022/12/10 11:36:42;;;;;;;1999.90;999.90;;;3.90;99.90;;;;;;5046389;28;20440;-69
2022/12/10 11:39:24;;;;;;;1999.90;999.90;;;3.90;99.90;;;;;;5061708;28;20450;-69
2022/12/10 11:41:57;;;;;;;1999.90;999.90;;;3.90;99.90;;;;;;5039050;28;20469;-69
2022/12/10 11:44:33;;;;;;;1999.90;999.90;;;3.90;99.90;;;;;;5033709;28;20445;-69
2022/12/10 11:47:17;;;;;;;1999.90;999.90;;;3.80;99.90;;;;;;5033194;28;20470;-69
2022/12/10 11:49:57;;;;;;;1999.90;999.90;;;3.70;99.90;;;;;;5048065;28;20915;-69
2022/12/10 11:52:36;;;;;;;1999.90;999.90;;;3.60;99.90;;;;;;5036552;28;20853;-68
2022/12/10 11:55:14;;;;;;;1999.90;999.90;;;3.60;99.90;;;;;;5049187;28;20448;-68
2022/12/10 11:57:49;;;;;;;1999.90;999.90;;;3.60;99.90;;;;;;5049622;28;20930;-68
2022/12/10 12:00:20;;;;;;;1999.90;999.90;;;3.60;99.90;;;;;;5045309;28;20475;-67
2022/12/10 12:03:07;;;;;;;1999.90;999.90;;;3.60;99.90;;;;;;5050925;28;20478;-68
2022/12/10 12:05:48;;;;;;;1999.90;999.90;;;3.80;99.90;;;;;;5052315;28;20463;-67
2022/12/10 12:08:24;;;;;;;1999.90;999.90;;;3.80;99.90;;;;;;5051394;28;20942;-67
2022/12/10 12:11:08;;;;;;;1999.90;999.90;;;3.80;99.90;;;;;;5052435;28;20937;-68
2022/12/10 12:13:40;;;;;;;1999.90;999.90;;;3.70;99.90;;;;;;5036419;28;20459;-68
2022/12/10 12:16:14;;;;;;;1999.90;999.90;;;3.70;99.90;;;;;;5043608;28;20831;-68
2022/12/10 12:18:47;;;;;;;1999.90;999.90;;;3.60;99.90;;;;;;5045988;28;20447;-67
2022/12/10 12:21:16;;;;;;;1999.90;999.90;;;3.60;99.90;;;;;;5047392;28;20480;-67
2022/12/10 12:23:50;;;;;;;1999.90;999.90;;;3.60;99.90;;;;;;5043382;28;20452;-67
2022/12/10 12:26:22;;;;;;;1999.90;999.90;;;3.60;99.90;;;;;;5046546;28;20973;-68
2022/12/10 12:28:55;;;;;;;1999.90;999.90;;;3.60;99.90;;;;;;5048026;28;20447;-68
2022/12/10 12:31:32;;;;;;;1999.90;999.90;;;3.60;99.90;;;;;;5041978;28;20455;-68
2022/12/10 12:34:03;;;;;;;1999.90;999.90;;;3.60;99.90;;;;;;5046549;28;20471;-68